createdAt,value
2017-06-11T02:16:10.044Z,17.50
2017-06-11T02:21:19.927Z,17.40
2017-06-11T04:53:59.662Z,17.30
2017-06-11T06:05:32.529Z,18.60
2017-06-11T06:37:45.541Z,19.40
2017-06-11T06:50:32.386Z,20.20
2017-06-11T07:00:48.537Z,20.50
2017-06-11T07:03:19.622Z,20.60
2017-06-11T07:13:56.932Z,20.90
2017-06-11T07:21:41.544Z,21.20
2017-06-11T07:26:50.916Z,21.30
2017-06-11T07:59:08.992Z,22.20
2017-06-11T08:35:04.730Z,23.60
2017-06-11T08:56:20.032Z,24.40
2017-06-11T09:48:30.619Z,25.80
2017-06-11T10:49:31.387Z,27.70
2017-06-11T11:52:53.503Z,35.60
2017-06-11T12:43:19.905Z,42.60
2017-06-11T12:48:21.265Z,42.40
2017-06-11T12:58:46.363Z,42.50
2017-06-11T13:01:17.853Z,42.10
2017-06-11T13:06:43.454Z,41.90
2017-06-11T14:44:42.048Z,46.70
2017-06-11T14:47:18.878Z,47.10
2017-06-11T17:02:15.328Z,32.20
2017-06-11T17:07:31.094Z,32.20
2017-06-11T17:21:04.454Z,32.20
2017-06-11T17:58:20.593Z,31.60
2017-06-11T18:30:34.135Z,30.80
2017-06-11T19:03:46.339Z,29.90
2017-06-11T19:06:17.557Z,30.10
2017-06-11T19:08:44.931Z,29.90
2017-06-11T19:11:11.276Z,30.00
2017-06-11T19:16:18.529Z,29.80
2017-06-11T19:18:44.587Z,29.80
2017-06-11T19:21:12.099Z,29.80
2017-06-11T19:26:11.732Z,29.60
2017-06-11T19:31:13.463Z,29.50
2017-06-11T19:33:42.746Z,29.50
2017-06-11T19:39:02.787Z,29.30
2017-06-11T19:41:33.685Z,29.20
2017-06-11T19:44:00.590Z,29.10
2017-06-11T19:46:31.975Z,28.90
2017-06-11T19:48:58.435Z,28.90
2017-06-11T19:51:25.658Z,28.70
2017-06-11T19:53:51.715Z,28.70
2017-06-11T19:56:18.631Z,28.60
2017-06-11T19:58:45.108Z,28.50
2017-06-11T20:01:11.174Z,28.40
2017-06-11T20:03:37.344Z,28.40
2017-06-11T20:06:05.092Z,28.40
2017-06-11T20:08:31.859Z,28.40
2017-06-11T20:16:22.531Z,28.30
2017-06-11T20:21:26.210Z,28.20
2017-06-11T20:23:55.249Z,28.10
2017-06-11T20:26:21.316Z,28.30
2017-06-11T20:28:47.463Z,28.00
2017-06-11T20:31:19.267Z,28.00
2017-06-11T20:33:46.635Z,27.90
2017-06-11T20:36:14.427Z,27.80
2017-06-11T20:38:40.574Z,27.70
2017-06-11T20:41:07.300Z,27.60
2017-06-11T20:43:35.017Z,27.60
2017-06-11T20:46:04.204Z,27.60
2017-06-11T20:51:22.217Z,27.40
2017-06-11T20:56:21.917Z,27.50
2017-06-11T20:58:47.935Z,27.10
2017-06-11T21:01:15.007Z,27.00
2017-06-11T21:07:42.686Z,27.20
2017-06-11T21:10:08.695Z,27.10
2017-06-11T21:18:15.937Z,27.00
2017-06-11T21:20:41.966Z,27.00
2017-06-11T21:23:15.185Z,27.00
2017-06-11T21:25:45.922Z,27.00
2017-06-11T21:28:15.574Z,26.90
2017-06-11T21:30:43.382Z,26.80
2017-06-11T21:33:09.743Z,26.80
2017-06-11T21:35:38.173Z,26.80
2017-06-11T21:38:07.490Z,26.80
2017-06-11T21:40:34.546Z,26.70
2017-06-11T21:43:04.065Z,26.60
2017-06-11T21:45:47.391Z,26.80
2017-06-11T21:48:22.246Z,26.60
2017-06-11T21:50:48.257Z,26.50
2017-06-11T21:53:14.465Z,26.50
2017-06-11T21:55:41.140Z,26.50
2017-06-11T21:58:07.163Z,26.50
2017-06-11T22:00:34.256Z,26.50
2017-06-11T22:03:00.519Z,26.50
2017-06-11T22:05:27.564Z,26.50
2017-06-11T22:07:53.609Z,26.50
2017-06-11T22:10:19.570Z,26.50
2017-06-11T22:12:45.535Z,26.50
2017-06-11T22:15:11.764Z,26.50
2017-06-11T22:17:39.411Z,26.50
2017-06-11T22:20:06.057Z,26.50
2017-06-11T22:22:32.108Z,26.40
2017-06-11T22:24:58.135Z,26.50
2017-06-11T22:27:24.420Z,26.40
2017-06-11T22:29:51.359Z,26.40
2017-06-11T22:32:18.052Z,26.40
2017-06-11T22:34:44.059Z,26.40
2017-06-11T22:37:10.846Z,26.10
2017-06-11T22:39:37.072Z,26.30
2017-06-11T22:42:03.071Z,26.10
2017-06-11T22:44:29.079Z,26.30
2017-06-11T22:46:55.067Z,26.30
2017-06-11T22:49:21.041Z,26.20
2017-06-11T22:51:47.084Z,26.20
2017-06-11T22:54:13.854Z,26.20
2017-06-11T22:56:39.816Z,26.20
2017-06-11T22:59:07.521Z,26.20
2017-06-11T23:01:33.611Z,26.10
2017-06-11T23:03:59.728Z,26.10
2017-06-11T23:06:25.802Z,26.00
2017-06-11T23:08:52.075Z,25.90
2017-06-11T23:11:19.079Z,25.80
2017-06-11T23:13:45.647Z,25.80
2017-06-11T23:18:43.964Z,25.70
2017-06-11T23:21:21.572Z,25.60
2017-06-11T23:29:43.268Z,25.40
2017-06-11T23:32:09.320Z,25.60
2017-06-11T23:34:35.719Z,25.40
2017-06-11T23:37:02.515Z,25.40
2017-06-11T23:39:28.527Z,25.40
2017-06-11T23:41:54.617Z,25.40
2017-06-11T23:44:20.669Z,25.40
2017-06-11T23:46:46.933Z,25.40
2017-06-11T23:49:12.920Z,25.40
2017-06-11T23:51:38.901Z,25.30
2017-06-11T23:54:04.886Z,25.30
2017-06-11T23:56:31.619Z,25.30
2017-06-11T23:58:58.978Z,25.20
